createdAt,value
2023-01-09T00:02:52.662Z,95584.47
2023-01-09T00:05:54.223Z,95590.53
2023-01-09T00:08:55.883Z,95577.75
2023-01-09T00:11:57.622Z,95576.31
2023-01-09T00:14:59.236Z,95577.16
2023-01-09T00:18:00.752Z,95578.16
2023-01-09T00:21:04.487Z,95589.94
2023-01-09T00:24:06.359Z,95585.03
2023-01-09T00:27:07.910Z,95592.34
2023-01-09T00:30:10.235Z,95594.97
2023-01-09T00:33:12.879Z,95594.78
2023-01-09T00:36:14.564Z,95611.84
2023-01-09T00:39:16.085Z,95598.28
2023-01-09T00:42:24.409Z,95583.31
2023-01-09T00:45:29.289Z,95592.84
2023-01-09T00:48:33.406Z,95582.94
2023-01-09T00:51:34.953Z,95587.56
2023-01-09T00:54:37.718Z,95581.28
2023-01-09T00:57:39.592Z,95588.56
2023-01-09T01:00:41.084Z,95577.84
2023-01-09T01:03:42.592Z,95592.22
2023-01-09T01:07:02.687Z,95605.56
2023-01-09T01:10:06.565Z,95599.28
2023-01-09T01:13:08.224Z,95600.31
2023-01-09T01:16:11.969Z,95614.44
2023-01-09T01:19:13.499Z,95614.84
2023-01-09T01:22:15.017Z,95622.94
2023-01-09T01:25:17.173Z,95611.34
2023-01-09T01:28:19.229Z,95601.03
2023-01-09T01:31:20.805Z,95601.25
2023-01-09T01:34:53.985Z,95610.56
2023-01-09T01:37:55.532Z,95600.63
2023-01-09T01:40:57.107Z,95595.00
2023-01-09T01:43:58.629Z,95583.47
2023-01-09T01:47:00.163Z,95607.78
2023-01-09T01:50:08.370Z,95610.84
2023-01-09T01:53:19.204Z,95629.44
2023-01-09T01:56:27.280Z,95620.56
2023-01-09T01:59:42.683Z,95624.63
2023-01-09T02:02:45.894Z,95645.06
2023-01-09T02:05:47.567Z,95638.00
2023-01-09T02:08:49.675Z,95639.41
2023-01-09T02:11:53.112Z,95641.63
2023-01-09T02:15:03.965Z,95656.81
2023-01-09T02:18:27.818Z,95659.44
2023-01-09T02:21:47.786Z,95683.13
2023-01-09T02:25:25.734Z,95668.75
2023-01-09T02:28:33.353Z,95665.94
2023-01-09T02:32:05.771Z,95675.25
2023-01-09T02:35:28.146Z,95699.56
2023-01-09T02:38:40.027Z,95700.56
2023-01-09T02:42:17.098Z,95687.38
2023-01-09T02:45:18.740Z,95716.53
2023-01-09T02:48:20.291Z,95726.44
2023-01-09T02:51:32.849Z,95733.94
2023-01-09T02:55:17.729Z,95737.38
2023-01-09T02:58:51.797Z,95754.19
2023-01-09T03:02:29.477Z,95763.09
2023-01-09T03:05:40.667Z,95762.69
2023-01-09T03:08:56.992Z,95782.88
2023-01-09T03:12:09.187Z,95774.56
2023-01-09T03:15:15.038Z,95786.50
2023-01-09T03:18:21.631Z,95803.53
2023-01-09T03:21:24.357Z,95804.09
2023-01-09T03:24:25.930Z,95838.22
2023-01-09T03:27:27.538Z,95845.66
2023-01-09T03:30:30.703Z,95852.34
2023-01-09T03:33:32.207Z,95850.47
2023-01-09T03:36:33.839Z,95859.13
2023-01-09T03:39:35.341Z,95868.44
2023-01-09T03:42:37.065Z,95876.56
2023-01-09T03:45:38.580Z,95894.59
2023-01-09T03:48:40.130Z,95892.94
2023-01-09T03:51:41.763Z,95936.59
2023-01-09T03:54:43.216Z,95933.53
2023-01-09T03:57:44.711Z,95951.84
2023-01-09T04:00:48.729Z,95943.75
2023-01-09T04:03:51.312Z,95952.53
2023-01-09T04:06:52.891Z,95960.97
2023-01-09T04:09:54.351Z,95969.53
2023-01-09T04:12:56.246Z,95978.34
2023-01-09T04:15:57.789Z,95974.00
2023-01-09T04:18:59.280Z,95986.41
2023-01-09T04:22:00.824Z,95984.31
2023-01-09T04:25:02.277Z,95988.50
2023-01-09T04:28:03.914Z,96000.06
2023-01-09T04:31:05.578Z,96003.13
2023-01-09T04:34:07.064Z,96010.91
2023-01-09T04:37:08.769Z,96027.19
2023-01-09T04:40:11.948Z,96034.28
2023-01-09T04:43:13.544Z,96026.19
2023-01-09T04:46:15.061Z,96047.38
2023-01-09T04:49:16.576Z,96043.47
2023-01-09T04:52:18.057Z,96062.94
2023-01-09T04:55:19.572Z,96058.97
2023-01-09T04:58:21.080Z,96074.06
2023-01-09T05:01:22.832Z,96088.03
2023-01-09T05:04:25.157Z,96090.81
2023-01-09T05:07:26.712Z,96084.94
2023-01-09T05:10:28.229Z,96108.56
2023-01-09T05:13:29.865Z,96102.72
2023-01-09T05:16:32.095Z,96100.53
2023-01-09T05:19:34.560Z,96101.69
2023-01-09T05:22:36.103Z,96119.44
2023-01-09T05:25:37.670Z,96095.53
2023-01-09T05:28:39.302Z,96118.59
2023-01-09T05:31:40.855Z,96113.34
2023-01-09T05:34:42.398Z,96122.69
2023-01-09T05:37:43.883Z,96127.09
2023-01-09T05:40:45.416Z,96128.09
2023-01-09T05:43:46.879Z,96135.81
2023-01-09T05:46:48.415Z,96142.34
2023-01-09T05:49:49.957Z,96144.16
2023-01-09T05:52:51.467Z,96137.09
2023-01-09T05:55:52.996Z,96135.44
2023-01-09T05:58:54.469Z,96142.34
2023-01-09T06:01:56.045Z,96159.69
2023-01-09T06:04:57.591Z,96150.72
2023-01-09T06:07:59.161Z,96151.66
2023-01-09T06:11:00.679Z,96140.34
2023-01-09T06:14:02.278Z,96151.78
2023-01-09T06:17:03.816Z,96152.59
2023-01-09T06:20:05.923Z,96144.25
2023-01-09T06:23:07.360Z,96144.72
2023-01-09T06:26:08.922Z,96138.47
2023-01-09T06:29:10.551Z,96128.03
2023-01-09T06:32:12.124Z,96136.06
2023-01-09T06:35:13.933Z,96122.84
2023-01-09T06:38:15.512Z,96122.72
2023-01-09T06:41:17.531Z,96132.34
2023-01-09T06:44:19.069Z,96128.41
2023-01-09T06:47:20.539Z,96117.06
2023-01-09T06:50:22.117Z,96123.72
2023-01-09T06:53:23.709Z,96133.53
2023-01-09T06:56:25.157Z,96126.13
2023-01-09T06:59:26.894Z,96130.38
2023-01-09T07:02:28.401Z,96139.88
2023-01-09T07:05:30.187Z,96127.56
2023-01-09T07:08:31.844Z,96131.63
2023-01-09T07:11:33.418Z,96128.03
2023-01-09T07:14:35.029Z,96116.97
2023-01-09T07:17:36.555Z,96122.44
2023-01-09T07:20:41.582Z,96126.75
2023-01-09T07:23:43.063Z,96121.03
2023-01-09T07:26:44.540Z,96120.59
2023-01-09T07:29:46.022Z,96122.28
2023-01-09T07:32:47.459Z,96119.09
2023-01-09T07:35:50.950Z,96123.09
2023-01-09T07:38:52.421Z,96123.38
2023-01-09T07:41:53.976Z,96118.69
2023-01-09T07:44:55.686Z,96109.81
2023-01-09T07:47:57.234Z,96103.59
2023-01-09T07:50:59.161Z,96095.34
2023-01-09T07:54:00.676Z,96099.63
2023-01-09T07:57:02.451Z,96095.34
2023-01-09T08:00:06.797Z,96078.78
2023-01-09T08:03:14.095Z,96094.28
2023-01-09T08:06:15.545Z,96125.44
2023-01-09T08:09:17.151Z,96090.41
2023-01-09T08:12:18.618Z,96092.22
2023-01-09T08:15:20.202Z,96090.31
2023-01-09T08:18:21.749Z,96093.59
2023-01-09T08:21:23.400Z,96108.97
2023-01-09T08:24:24.938Z,96100.09
2023-01-09T08:27:26.385Z,96097.19
2023-01-09T08:30:27.940Z,96087.97
2023-01-09T08:33:29.945Z,96099.41
2023-01-09T08:36:31.510Z,96099.28
2023-01-09T08:39:33.288Z,96104.03
2023-01-09T08:42:53.056Z,96104.31
2023-01-09T08:46:20.548Z,96122.53
2023-01-09T08:49:22.529Z,96116.72
2023-01-09T08:52:24.447Z,96101.97
2023-01-09T08:55:26.357Z,96116.56
2023-01-09T08:58:27.902Z,96114.31
2023-01-09T09:01:29.463Z,96114.16
2023-01-09T09:04:30.976Z,96110.63
2023-01-09T09:07:32.813Z,96120.94
2023-01-09T09:10:34.347Z,96119.03
2023-01-09T09:13:35.832Z,96125.47
2023-01-09T09:16:37.307Z,96135.53
2023-01-09T09:19:39.546Z,96134.31
2023-01-09T09:22:41.154Z,96152.56
2023-01-09T09:25:43.879Z,96141.91
2023-01-09T09:28:45.492Z,96136.06
2023-01-09T09:31:46.926Z,96134.78
2023-01-09T09:50:22.230Z,96159.09
2023-01-09T09:53:29.529Z,96154.69
2023-01-09T09:56:38.013Z,96166.13
2023-01-09T09:59:43.033Z,96151.97
2023-01-09T10:03:00.976Z,96151.34
2023-01-09T10:06:30.690Z,96161.72
2023-01-09T10:09:54.501Z,96162.28
2023-01-09T10:12:58.843Z,96152.03
2023-01-09T10:16:05.291Z,96148.41
2023-01-09T10:19:16.492Z,96143.63
2023-01-09T10:22:18.081Z,96142.72
2023-01-09T10:25:27.953Z,96150.09
2023-01-09T10:28:37.337Z,96141.06
2023-01-09T10:31:57.289Z,96146.81
2023-01-09T10:35:52.824Z,96165.13
2023-01-09T10:39:00.030Z,96151.00
2023-01-09T10:42:18.314Z,96145.38
2023-01-09T10:45:28.617Z,96145.13
2023-01-09T10:48:38.728Z,96140.53
2023-01-09T10:51:49.868Z,96118.41
2023-01-09T10:55:04.326Z,96115.91
2023-01-09T10:58:13.094Z,96118.47
2023-01-09T11:01:17.463Z,96131.03
2023-01-09T11:04:25.060Z,96111.13
2023-01-09T11:07:31.715Z,96134.56
2023-01-09T11:10:51.647Z,96141.53
2023-01-09T11:14:15.561Z,96138.25
2023-01-09T11:17:25.654Z,96149.97
2023-01-09T11:20:29.559Z,96136.09
2023-01-09T11:23:33.417Z,96162.47
2023-01-09T11:26:35.678Z,96148.00
2023-01-09T11:29:37.798Z,96151.28
2023-01-09T11:32:39.548Z,96144.69
2023-01-09T11:35:57.326Z,96135.13
2023-01-09T11:39:00.949Z,96163.59
2023-01-09T11:42:05.749Z,96161.91
2023-01-09T11:45:21.316Z,96161.91
2023-01-09T11:48:38.726Z,96174.53
2023-01-09T11:51:41.982Z,96162.50
2023-01-09T11:54:59.128Z,96168.78
2023-01-09T11:58:00.741Z,96155.44
2023-01-09T12:01:24.393Z,96166.72
2023-01-09T12:04:58.557Z,96162.84
2023-01-09T12:08:08.905Z,96156.88
2023-01-09T12:11:23.203Z,96179.66
2023-01-09T12:14:24.688Z,96185.44
2023-01-09T12:17:32.387Z,96173.81
2023-01-09T12:21:04.277Z,96157.25
2023-01-09T12:24:17.350Z,96177.56
2023-01-09T12:27:24.678Z,96174.56
2023-01-09T12:30:58.762Z,96175.94
2023-01-09T12:34:12.286Z,96177.72
2023-01-09T12:37:50.628Z,96189.69
2023-01-09T12:41:05.432Z,96157.91
2023-01-09T12:44:34.288Z,96165.41
2023-01-09T12:47:45.474Z,96161.47
2023-01-09T12:51:08.366Z,96176.75
2023-01-09T12:54:32.656Z,96184.13
2023-01-09T12:57:40.287Z,96186.97
2023-01-09T13:00:44.274Z,96197.41
2023-01-09T13:03:45.869Z,96178.81
2023-01-09T13:06:54.132Z,96172.09
2023-01-09T13:10:06.700Z,96157.84
2023-01-09T13:13:35.158Z,96151.69
2023-01-09T13:16:42.442Z,96164.66
2023-01-09T13:19:46.109Z,96173.81
2023-01-09T13:22:51.017Z,96149.09
2023-01-09T13:26:00.045Z,96161.25
2023-01-09T13:29:16.772Z,96156.00
2023-01-09T13:32:33.440Z,96158.16
2023-01-09T13:35:54.328Z,96201.25
2023-01-09T13:38:58.778Z,96215.00
2023-01-09T13:42:21.381Z,96203.19
2023-01-09T13:45:30.279Z,96195.59
2023-01-09T13:48:41.567Z,96207.00
2023-01-09T13:51:43.122Z,96191.47
2023-01-09T13:54:58.183Z,96221.22
2023-01-09T13:58:06.037Z,96216.28
2023-01-09T14:01:22.995Z,96215.94
2023-01-09T14:04:37.875Z,96227.00
2023-01-09T14:07:49.513Z,96231.00
2023-01-09T14:10:52.999Z,96234.88
2023-01-09T14:14:01.161Z,96230.91
2023-01-09T14:17:17.051Z,96244.13
2023-01-09T14:20:32.943Z,96249.34
2023-01-09T14:23:52.781Z,96251.50
2023-01-09T14:26:58.036Z,96257.25
2023-01-09T14:30:27.904Z,96259.94
2023-01-09T14:33:31.435Z,96257.88
2023-01-09T14:36:35.352Z,96264.97
2023-01-09T14:39:40.316Z,96287.75
2023-01-09T14:42:52.975Z,96295.91
2023-01-09T14:46:03.683Z,96296.44
2023-01-09T14:49:15.077Z,96293.13
2023-01-09T14:52:29.331Z,96286.25
2023-01-09T14:55:45.632Z,96293.94
2023-01-09T14:58:47.252Z,96290.19
2023-01-09T15:01:51.678Z,96314.44
2023-01-09T15:04:56.768Z,96308.38
2023-01-09T15:08:02.708Z,96332.31
2023-01-09T15:11:04.305Z,96328.03
2023-01-09T15:14:08.580Z,96345.13
2023-01-09T15:17:57.869Z,96340.25
2023-01-09T15:21:05.653Z,96348.97
2023-01-09T15:24:21.982Z,96352.06
2023-01-09T15:27:23.749Z,96375.81
2023-01-09T15:30:37.140Z,96375.00
2023-01-09T15:33:40.520Z,96400.69
2023-01-09T15:36:42.121Z,96391.38
2023-01-09T15:39:43.850Z,96390.53
2023-01-09T15:43:01.194Z,96375.97
2023-01-09T15:46:03.249Z,96398.25
2023-01-09T15:49:04.968Z,96398.09
2023-01-09T15:52:11.956Z,96405.59
2023-01-09T15:55:26.323Z,96412.81
2023-01-09T15:58:40.672Z,96415.28
2023-01-09T16:01:42.478Z,96420.66
2023-01-09T16:04:44.055Z,96427.56
2023-01-09T16:07:50.100Z,96426.88
2023-01-09T16:10:54.210Z,96425.28
2023-01-09T16:13:57.901Z,96431.94
2023-01-09T16:17:02.732Z,96449.50
2023-01-09T16:20:24.469Z,96452.28
2023-01-09T16:23:34.413Z,96451.78
2023-01-09T16:26:36.256Z,96448.84
2023-01-09T16:29:44.818Z,96465.53
2023-01-09T16:32:48.403Z,96468.63
2023-01-09T16:35:51.290Z,96476.66
2023-01-09T16:38:54.537Z,96485.03
2023-01-09T16:42:16.260Z,96482.72
2023-01-09T16:45:17.858Z,96480.25
2023-01-09T16:48:21.795Z,96482.72
2023-01-09T16:51:23.365Z,96494.19
2023-01-09T16:54:24.934Z,96495.34
2023-01-09T16:57:26.540Z,96507.50
2023-01-09T17:00:28.072Z,96505.84
2023-01-09T17:03:29.588Z,96506.53
2023-01-09T17:06:32.445Z,96510.59
2023-01-09T17:09:36.161Z,96523.88
2023-01-09T17:12:38.502Z,96524.84
2023-01-09T17:15:40.216Z,96522.88
2023-01-09T17:18:41.804Z,96532.84
2023-01-09T17:21:43.415Z,96536.88
2023-01-09T17:25:14.332Z,96526.72
2023-01-09T17:28:35.751Z,96546.06
2023-01-09T17:31:38.715Z,96537.72
2023-01-09T17:34:43.824Z,96548.88
2023-01-09T17:37:45.333Z,96547.72
2023-01-09T17:40:46.919Z,96547.03
2023-01-09T17:43:48.620Z,96548.88
2023-01-09T17:46:50.224Z,96561.16
2023-01-09T17:49:51.797Z,96570.63
2023-01-09T17:52:53.361Z,96580.47
2023-01-09T17:55:54.804Z,96587.97
2023-01-09T17:58:56.509Z,96594.50
2023-01-09T18:01:58.280Z,96587.28
2023-01-09T18:04:59.932Z,96592.53
2023-01-09T18:08:01.626Z,96602.63
2023-01-09T18:11:04.539Z,96595.84
2023-01-09T18:14:06.112Z,96607.75
2023-01-09T18:17:10.706Z,96614.75
2023-01-09T18:20:12.741Z,96619.19
2023-01-09T18:23:14.636Z,96611.34
2023-01-09T18:26:22.916Z,96627.41
2023-01-09T18:29:24.654Z,96632.63
2023-01-09T18:32:26.522Z,96630.69
2023-01-09T18:35:28.140Z,96634.47
2023-01-09T18:38:30.912Z,96641.38
2023-01-09T18:41:32.512Z,96645.16
2023-01-09T18:44:34.048Z,96642.34
2023-01-09T18:47:35.614Z,96658.56
2023-01-09T18:50:37.257Z,96660.41
2023-01-09T18:53:38.781Z,96667.91
2023-01-09T18:56:40.468Z,96679.88
2023-01-09T18:59:42.017Z,96675.75
2023-01-09T19:02:43.595Z,96682.69
2023-01-09T19:05:45.080Z,96693.69
2023-01-09T19:08:46.679Z,96687.09
2023-01-09T19:11:48.158Z,96694.81
2023-01-09T19:14:49.746Z,96707.03
2023-01-09T19:17:51.717Z,96709.28
2023-01-09T19:20:54.231Z,96701.19
2023-01-09T19:23:55.895Z,96704.50
2023-01-09T19:26:57.475Z,96694.03
2023-01-09T19:29:59.080Z,96699.28
2023-01-09T19:33:00.591Z,96699.84
2023-01-09T19:36:02.196Z,96697.56
2023-01-09T19:39:05.081Z,96695.28
2023-01-09T19:42:06.730Z,96707.91
2023-01-09T19:45:08.910Z,96710.66
2023-01-09T19:48:10.484Z,96707.91
2023-01-09T19:51:13.334Z,96716.09
2023-01-09T19:54:14.849Z,96725.53
2023-01-09T19:57:16.554Z,96721.53
2023-01-09T20:00:18.408Z,96735.13
2023-01-09T20:03:20.023Z,96732.88
2023-01-09T20:06:24.698Z,96738.47
2023-01-09T20:09:29.989Z,96737.34
2023-01-09T20:12:32.419Z,96741.28
2023-01-09T20:15:36.602Z,96723.59
2023-01-09T20:18:40.742Z,96736.72
2023-01-09T20:21:42.848Z,96736.06
2023-01-09T20:24:44.452Z,96728.03
2023-01-09T20:27:46.753Z,96733.44
2023-01-09T20:30:51.570Z,96731.19
2023-01-09T20:33:53.780Z,96736.13
2023-01-09T20:36:55.616Z,96754.13
2023-01-09T20:39:57.326Z,96735.78
2023-01-09T20:42:59.007Z,96753.09
2023-01-09T20:46:04.261Z,96751.06
2023-01-09T20:49:08.450Z,96766.88
2023-01-09T20:52:09.962Z,96751.53
2023-01-09T20:55:11.587Z,96752.84
2023-01-09T20:58:13.071Z,96753.59
2023-01-09T21:01:14.727Z,96760.56
2023-01-09T21:04:18.014Z,96766.31
2023-01-09T21:07:19.894Z,96766.31
2023-01-09T21:10:21.509Z,96776.50
2023-01-09T21:13:24.122Z,96783.06
2023-01-09T21:16:25.968Z,96784.69
2023-01-09T21:19:27.483Z,96781.94
2023-01-09T21:22:34.688Z,96782.44
2023-01-09T21:25:41.137Z,96794.97
2023-01-09T21:28:54.977Z,96796.28
2023-01-09T21:31:57.276Z,96791.88
2023-01-09T21:35:06.031Z,96799.28
2023-01-09T21:38:07.705Z,96803.00
2023-01-09T21:41:28.042Z,96806.09
2023-01-09T21:44:48.247Z,96814.78
2023-01-09T21:47:49.849Z,96836.00
2023-01-09T21:50:51.553Z,96824.06
2023-01-09T21:53:53.201Z,96816.63
2023-01-09T21:56:54.818Z,96818.22
2023-01-09T21:59:56.419Z,96823.91
2023-01-09T22:02:58.964Z,96832.91
2023-01-09T22:06:04.141Z,96845.13
2023-01-09T22:09:05.839Z,96844.47
2023-01-09T22:12:08.654Z,96854.78
2023-01-09T22:15:10.504Z,96860.91
2023-01-09T22:18:12.180Z,96877.44
2023-01-09T22:21:13.783Z,96877.81
2023-01-09T22:24:17.644Z,96889.03
2023-01-09T22:27:19.168Z,96890.00
2023-01-09T22:30:20.943Z,96903.69
2023-01-09T22:33:24.465Z,96907.13
2023-01-09T22:36:28.057Z,96912.47
2023-01-09T22:39:29.666Z,96914.81
2023-01-09T22:42:31.276Z,96915.97
2023-01-09T22:45:33.209Z,96928.50
2023-01-09T22:48:34.851Z,96930.28
2023-01-09T22:51:36.509Z,96938.03
2023-01-09T22:54:38.142Z,96941.38
2023-01-09T22:57:39.780Z,96957.78
2023-01-09T23:00:41.305Z,96957.91
2023-01-09T23:03:42.777Z,96963.69
2023-01-09T23:06:44.461Z,96970.00
2023-01-09T23:09:46.185Z,96969.84
2023-01-09T23:12:50.226Z,96978.53
2023-01-09T23:15:52.156Z,96969.03
2023-01-09T23:18:53.602Z,96981.94
2023-01-09T23:21:55.235Z,96985.94
2023-01-09T23:24:56.810Z,96988.13
2023-01-09T23:27:58.559Z,96997.78
2023-01-09T23:31:00.107Z,96996.66
2023-01-09T23:34:01.892Z,96982.88
2023-01-09T23:37:08.852Z,96994.44
2023-01-09T23:40:11.965Z,97004.09
2023-01-09T23:43:15.049Z,96996.38
2023-01-09T23:46:16.582Z,97009.00
2023-01-09T23:49:18.447Z,97011.81
2023-01-09T23:52:19.980Z,97022.41
2023-01-09T23:55:21.494Z,97022.28
2023-01-09T23:58:23.174Z,97028.59
